Strona główna
METAR-TAF:

METAR-TAF

Lotnisko :

Port lotniczy East Midlands

East Midlands, Anglia

Szerokość geograficzna: 52-50N, Długość geograficzna: 001-20W, wysokość: 94 m

Aktualna obserwacja pogody

Raport powstał 27 minut temu, godzina 06:20 UTC
Wiatr 6 kt od północ
Temperatura 13°C
Wilgotność 67%
Ciśnienie 1025 hPa
Widzialność 10 km lub więcej
Brak chmur poniżej 1500 m i brak chmur cumulonimbus

METAR: EGNX 010620Z 01006KT CAVOK 13/07 Q1025

czas: 07:47 (06:47 UTC)

Prognoza

Raport powstał 1 godzina i 49 minut temu, godzina 04:58 UTC
Prognoza ważna od 01 godzina 06 UTC do 02 godzina 06 UTC
Wiatr 7 kt od północny wschód
Widzialność 10 km lub więcej
Mało chmury na wysokości 4000 ft
Prawdopodobieństwo 30%
od 02 godzina 03 UTC do 02 godzina 06 UTC
Widzialność: 8000 m

TAF: EGNX 010458Z 0106/0206 05007KT 9999 FEW040 PROB30 0203/0206 8000

Obserwacja i prognoza pogody dla ponad 4000 lotnisk (raport METAR i TAF).

Dostępne stacje oznaczono żółtymi i czerwonymi punktami na mapie.

Najedź kursorem aby zobaczyć nazwę stacji.

Kliknij aby zobaczyć obserwacje i prognozy pogody.

Aby zmienić mapę: kliknij na zielony przycisk z czarnym krzyżykiem, aby powiększyć; na zielony przycisk z myślnikiem, aby pomniejszyć; na zielone strzałki, aby przejść do map sąsiednich.


METAR-TAF: